sensor_id;sensor_type;location;lat;lon;timestamp;P1;durP1;ratioP1;P2;durP2;ratioP2
71503;SDS011;59323;50.874;7.028;2023-05-10T00:00:08;9.43;;;4.33;;
71503;SDS011;59323;50.874;7.028;2023-05-10T00:02:35;8.13;;;3.63;;
71503;SDS011;59323;50.874;7.028;2023-05-10T00:05:01;8.48;;;4.00;;
71503;SDS011;59323;50.874;7.028;2023-05-10T00:07:26;10.73;;;4.20;;
71503;SDS011;59323;50.874;7.028;2023-05-10T00:09:52;9.05;;;4.13;;
71503;SDS011;59323;50.874;7.028;2023-05-10T00:12:17;9.43;;;4.23;;
71503;SDS011;59323;50.874;7.028;2023-05-10T00:14:45;8.60;;;4.40;;
71503;SDS011;59323;50.874;7.028;2023-05-10T00:17:11;11.23;;;4.57;;
71503;SDS011;59323;50.874;7.028;2023-05-10T00:19:38;11.38;;;5.22;;
71503;SDS011;59323;50.874;7.028;2023-05-10T00:22:04;13.10;;;5.60;;
71503;SDS011;59323;50.874;7.028;2023-05-10T00:24:32;13.73;;;6.13;;
71503;SDS011;59323;50.874;7.028;2023-05-10T00:26:57;12.37;;;6.10;;
71503;SDS011;59323;50.874;7.028;2023-05-10T00:29:23;12.47;;;6.13;;
71503;SDS011;59323;50.874;7.028;2023-05-10T00:31:49;12.43;;;5.75;;
71503;SDS011;59323;50.874;7.028;2023-05-10T00:34:14;12.50;;;5.77;;
71503;SDS011;59323;50.874;7.028;2023-05-10T00:36:40;13.38;;;6.60;;
71503;SDS011;59323;50.874;7.028;2023-05-10T00:39:05;12.10;;;5.43;;
71503;SDS011;59323;50.874;7.028;2023-05-10T00:41:31;13.90;;;6.65;;
71503;SDS011;59323;50.874;7.028;2023-05-10T00:43:57;11.88;;;5.75;;
71503;SDS011;59323;50.874;7.028;2023-05-10T00:46:23;12.47;;;5.50;;
71503;SDS011;59323;50.874;7.028;2023-05-10T00:48:49;11.00;;;5.18;;
71503;SDS011;59323;50.874;7.028;2023-05-10T00:51:15;12.32;;;6.05;;
71503;SDS011;59323;50.874;7.028;2023-05-10T00:53:41;11.73;;;5.83;;
71503;SDS011;59323;50.874;7.028;2023-05-10T00:56:07;13.73;;;6.95;;
71503;SDS011;59323;50.874;7.028;2023-05-10T00:58:33;15.37;;;7.13;;
71503;SDS011;59323;50.874;7.028;2023-05-10T01:01:01;13.38;;;6.85;;
71503;SDS011;59323;50.874;7.028;2023-05-10T01:03:26;15.00;;;7.60;;
71503;SDS011;59323;50.874;7.028;2023-05-10T01:05:52;14.32;;;6.85;;
71503;SDS011;59323;50.874;7.028;2023-05-10T01:08:18;13.57;;;6.80;;
71503;SDS011;59323;50.874;7.028;2023-05-10T01:10:52;13.93;;;6.80;;
71503;SDS011;59323;50.874;7.028;2023-05-10T01:15:58;14.35;;;6.50;;
71503;SDS011;59323;50.874;7.028;2023-05-10T01:18:26;14.68;;;7.30;;
71503;SDS011;59323;50.874;7.028;2023-05-10T01:21:00;14.73;;;7.43;;
71503;SDS011;59323;50.874;7.028;2023-05-10T01:23:56;15.53;;;7.40;;
71503;SDS011;59323;50.874;7.028;2023-05-10T01:43:48;16.02;;;7.32;;
71503;SDS011;59323;50.874;7.028;2023-05-10T01:46:24;17.35;;;8.45;;
71503;SDS011;59323;50.874;7.028;2023-05-10T01:49:00;16.85;;;7.93;;
71503;SDS011;59323;50.874;7.028;2023-05-10T01:51:27;16.00;;;7.97;;
71503;SDS011;59323;50.874;7.028;2023-05-10T01:54:02;15.55;;;7.43;;
71503;SDS011;59323;50.874;7.028;2023-05-10T01:56:29;14.48;;;7.22;;
71503;SDS011;59323;50.874;7.028;2023-05-10T01:58:57;17.25;;;7.85;;
71503;SDS011;59323;50.874;7.028;2023-05-10T02:01:25;17.17;;;7.90;;
71503;SDS011;59323;50.874;7.028;2023-05-10T02:03:52;14.57;;;7.40;;
71503;SDS011;59323;50.874;7.028;2023-05-10T02:06:20;13.57;;;6.80;;
71503;SDS011;59323;50.874;7.028;2023-05-10T02:08:47;13.05;;;6.45;;
71503;SDS011;59323;50.874;7.028;2023-05-10T02:11:15;13.68;;;6.97;;
71503;SDS011;59323;50.874;7.028;2023-05-10T02:13:43;14.90;;;6.55;;
71503;SDS011;59323;50.874;7.028;2023-05-10T02:16:10;15.27;;;6.30;;
71503;SDS011;59323;50.874;7.028;2023-05-10T02:18:38;14.50;;;6.75;;
71503;SDS011;59323;50.874;7.028;2023-05-10T02:21:06;12.95;;;6.40;;
71503;SDS011;59323;50.874;7.028;2023-05-10T02:23:32;12.52;;;6.10;;
71503;SDS011;59323;50.874;7.028;2023-05-10T02:26:00;14.05;;;6.30;;
71503;SDS011;59323;50.874;7.028;2023-05-10T02:28:26;12.43;;;6.03;;
71503;SDS011;59323;50.874;7.028;2023-05-10T02:30:53;13.90;;;5.95;;
71503;SDS011;59323;50.874;7.028;2023-05-10T02:33:20;13.23;;;5.97;;
71503;SDS011;59323;50.874;7.028;2023-05-10T02:35:47;12.88;;;6.00;;
71503;SDS011;59323;50.874;7.028;2023-05-10T02:38:13;11.82;;;5.88;;
71503;SDS011;59323;50.874;7.028;2023-05-10T02:40:40;12.93;;;5.93;;
71503;SDS011;59323;50.874;7.028;2023-05-10T02:43:07;11.90;;;5.50;;
71503;SDS011;59323;50.874;7.028;2023-05-10T02:45:36;12.68;;;6.18;;
71503;SDS011;59323;50.874;7.028;2023-05-10T02:48:04;13.00;;;6.00;;
71503;SDS011;59323;50.874;7.028;2023-05-10T02:50:29;14.00;;;6.07;;
71503;SDS011;59323;50.874;7.028;2023-05-10T02:53:01;16.38;;;6.28;;
71503;SDS011;59323;50.874;7.028;2023-05-10T02:55:31;12.60;;;6.07;;
71503;SDS011;59323;50.874;7.028;2023-05-10T02:58:00;12.02;;;5.20;;
71503;SDS011;59323;50.874;7.028;2023-05-10T03:00:27;13.10;;;5.97;;
71503;SDS011;59323;50.874;7.028;2023-05-10T03:02:53;12.43;;;5.33;;
71503;SDS011;59323;50.874;7.028;2023-05-10T03:05:19;14.13;;;6.57;;
71503;SDS011;59323;50.874;7.028;2023-05-10T03:07:45;14.00;;;6.20;;
71503;SDS011;59323;50.874;7.028;2023-05-10T03:10:11;13.27;;;5.70;;
71503;SDS011;59323;50.874;7.028;2023-05-10T03:18:09;14.30;;;5.88;;
71503;SDS011;59323;50.874;7.028;2023-05-10T03:20:43;14.00;;;5.60;;
71503;SDS011;59323;50.874;7.028;2023-05-10T03:23:26;13.88;;;5.68;;
71503;SDS011;59323;50.874;7.028;2023-05-10T03:25:55;11.68;;;5.57;;
71503;SDS011;59323;50.874;7.028;2023-05-10T03:28:20;14.00;;;5.80;;
71503;SDS011;59323;50.874;7.028;2023-05-10T03:30:47;15.40;;;6.78;;
71503;SDS011;59323;50.874;7.028;2023-05-10T03:33:13;15.23;;;6.13;;
71503;SDS011;59323;50.874;7.028;2023-05-10T03:35:39;12.15;;;5.22;;
71503;SDS011;59323;50.874;7.028;2023-05-10T03:38:04;12.83;;;5.80;;
71503;SDS011;59323;50.874;7.028;2023-05-10T03:40:29;12.00;;;4.73;;
71503;SDS011;59323;50.874;7.028;2023-05-10T03:42:57;13.23;;;5.80;;
71503;SDS011;59323;50.874;7.028;2023-05-10T03:45:23;13.40;;;5.32;;
71503;SDS011;59323;50.874;7.028;2023-05-10T03:47:48;16.10;;;6.33;;
71503;SDS011;59323;50.874;7.028;2023-05-10T03:50:13;13.20;;;5.50;;
71503;SDS011;59323;50.874;7.028;2023-05-10T03:52:39;13.97;;;6.53;;
71503;SDS011;59323;50.874;7.028;2023-05-10T03:55:04;15.10;;;6.57;;
71503;SDS011;59323;50.874;7.028;2023-05-10T03:57:31;12.15;;;5.55;;
71503;SDS011;59323;50.874;7.028;2023-05-10T03:59:57;17.95;;;6.68;;
71503;SDS011;59323;50.874;7.028;2023-05-10T04:02:22;13.70;;;6.20;;
71503;SDS011;59323;50.874;7.028;2023-05-10T04:04:47;14.73;;;6.83;;
71503;SDS011;59323;50.874;7.028;2023-05-10T04:07:13;15.13;;;6.70;;
71503;SDS011;59323;50.874;7.028;2023-05-10T04:09:38;13.90;;;5.97;;
71503;SDS011;59323;50.874;7.028;2023-05-10T04:12:04;13.23;;;5.97;;
71503;SDS011;59323;50.874;7.028;2023-05-10T04:14:30;13.38;;;5.57;;
71503;SDS011;59323;50.874;7.028;2023-05-10T04:16:55;12.43;;;5.53;;
71503;SDS011;59323;50.874;7.028;2023-05-10T04:19:21;12.80;;;5.90;;
71503;SDS011;59323;50.874;7.028;2023-05-10T04:21:46;14.57;;;6.67;;
71503;SDS011;59323;50.874;7.028;2023-05-10T04:24:11;12.95;;;5.65;;
71503;SDS011;59323;50.874;7.028;2023-05-10T04:26:37;13.23;;;5.40;;
71503;SDS011;59323;50.874;7.028;2023-05-10T04:29:02;15.40;;;6.43;;
71503;SDS011;59323;50.874;7.028;2023-05-10T04:31:27;14.80;;;6.67;;
71503;SDS011;59323;50.874;7.028;2023-05-10T04:33:53;14.80;;;6.67;;
71503;SDS011;59323;50.874;7.028;2023-05-10T04:36:18;15.90;;;6.57;;
71503;SDS011;59323;50.874;7.028;2023-05-10T04:38:43;16.23;;;6.77;;
71503;SDS011;59323;50.874;7.028;2023-05-10T04:41:09;17.73;;;6.97;;
71503;SDS011;59323;50.874;7.028;2023-05-10T04:43:36;14.63;;;6.85;;
71503;SDS011;59323;50.874;7.028;2023-05-10T04:46:02;15.53;;;6.30;;
71503;SDS011;59323;50.874;7.028;2023-05-10T04:48:28;17.77;;;7.25;;
71503;SDS011;59323;50.874;7.028;2023-05-10T04:50:53;16.13;;;7.10;;
71503;SDS011;59323;50.874;7.028;2023-05-10T04:53:19;16.90;;;7.33;;
71503;SDS011;59323;50.874;7.028;2023-05-10T04:55:44;16.30;;;8.07;;
71503;SDS011;59323;50.874;7.028;2023-05-10T04:58:10;18.45;;;8.45;;
71503;SDS011;59323;50.874;7.028;2023-05-10T05:00:36;18.97;;;8.70;;
71503;SDS011;59323;50.874;7.028;2023-05-10T05:03:01;21.73;;;9.23;;
71503;SDS011;59323;50.874;7.028;2023-05-10T05:05:27;20.27;;;8.10;;
71503;SDS011;59323;50.874;7.028;2023-05-10T05:07:52;20.83;;;8.73;;
71503;SDS011;59323;50.874;7.028;2023-05-10T05:10:17;20.57;;;8.90;;
71503;SDS011;59323;50.874;7.028;2023-05-10T05:12:43;19.93;;;8.70;;
71503;SDS011;59323;50.874;7.028;2023-05-10T05:15:08;22.07;;;9.47;;
71503;SDS011;59323;50.874;7.028;2023-05-10T05:17:34;18.95;;;8.98;;
71503;SDS011;59323;50.874;7.028;2023-05-10T05:20:04;17.23;;;8.18;;
71503;SDS011;59323;50.874;7.028;2023-05-10T05:22:32;19.92;;;8.68;;
71503;SDS011;59323;50.874;7.028;2023-05-10T05:25:03;19.17;;;8.00;;
71503;SDS011;59323;50.874;7.028;2023-05-10T05:27:32;17.65;;;7.70;;
71503;SDS011;59323;50.874;7.028;2023-05-10T05:29:58;18.23;;;8.95;;
71503;SDS011;59323;50.874;7.028;2023-05-10T05:32:26;18.83;;;8.50;;
71503;SDS011;59323;50.874;7.028;2023-05-10T05:34:54;18.58;;;8.32;;
71503;SDS011;59323;50.874;7.028;2023-05-10T05:37:20;20.27;;;8.50;;
71503;SDS011;59323;50.874;7.028;2023-05-10T05:39:49;17.37;;;8.23;;
71503;SDS011;59323;50.874;7.028;2023-05-10T05:42:15;20.73;;;8.70;;
71503;SDS011;59323;50.874;7.028;2023-05-10T05:44:48;20.17;;;9.40;;
71503;SDS011;59323;50.874;7.028;2023-05-10T05:47:13;17.67;;;8.57;;
71503;SDS011;59323;50.874;7.028;2023-05-10T05:49:39;18.33;;;8.90;;
71503;SDS011;59323;50.874;7.028;2023-05-10T05:52:04;25.17;;;10.13;;
71503;SDS011;59323;50.874;7.028;2023-05-10T05:54:30;18.00;;;9.18;;
71503;SDS011;59323;50.874;7.028;2023-05-10T05:56:58;23.52;;;10.20;;
71503;SDS011;59323;50.874;7.028;2023-05-10T05:59:24;23.70;;;9.70;;
71503;SDS011;59323;50.874;7.028;2023-05-10T06:01:49;21.77;;;10.13;;
71503;SDS011;59323;50.874;7.028;2023-05-10T06:04:17;20.23;;;9.23;;
71503;SDS011;59323;50.874;7.028;2023-05-10T06:06:46;18.95;;;8.75;;
71503;SDS011;59323;50.874;7.028;2023-05-10T06:09:14;24.30;;;10.05;;
71503;SDS011;59323;50.874;7.028;2023-05-10T06:11:39;25.13;;;10.37;;
71503;SDS011;59323;50.874;7.028;2023-05-10T06:14:08;20.70;;;9.93;;
71503;SDS011;59323;50.874;7.028;2023-05-10T06:16:40;20.20;;;9.25;;
71503;SDS011;59323;50.874;7.028;2023-05-10T06:19:06;23.97;;;10.40;;
71503;SDS011;59323;50.874;7.028;2023-05-10T06:21:31;23.75;;;10.30;;
71503;SDS011;59323;50.874;7.028;2023-05-10T06:23:57;21.93;;;10.27;;
71503;SDS011;59323;50.874;7.028;2023-05-10T06:26:22;21.00;;;9.20;;
71503;SDS011;59323;50.874;7.028;2023-05-10T06:28:48;21.80;;;9.20;;
71503;SDS011;59323;50.874;7.028;2023-05-10T06:31:13;22.37;;;10.97;;
71503;SDS011;59323;50.874;7.028;2023-05-10T06:33:39;21.90;;;9.93;;
71503;SDS011;59323;50.874;7.028;2023-05-10T06:36:05;22.67;;;9.65;;
71503;SDS011;59323;50.874;7.028;2023-05-10T06:38:30;21.90;;;9.60;;
71503;SDS011;59323;50.874;7.028;2023-05-10T06:40:56;22.37;;;10.17;;
71503;SDS011;59323;50.874;7.028;2023-05-10T06:43:22;19.20;;;8.27;;
71503;SDS011;59323;50.874;7.028;2023-05-10T06:45:47;18.57;;;7.57;;
71503;SDS011;59323;50.874;7.028;2023-05-10T06:48:13;20.60;;;8.03;;
71503;SDS011;59323;50.874;7.028;2023-05-10T06:50:38;21.10;;;8.77;;
71503;SDS011;59323;50.874;7.028;2023-05-10T06:53:03;20.70;;;8.57;;
71503;SDS011;59323;50.874;7.028;2023-05-10T06:55:29;19.60;;;8.27;;
71503;SDS011;59323;50.874;7.028;2023-05-10T06:57:54;19.73;;;7.80;;
71503;SDS011;59323;50.874;7.028;2023-05-10T07:00:20;16.83;;;8.03;;
71503;SDS011;59323;50.874;7.028;2023-05-10T07:02:45;19.20;;;8.38;;
71503;SDS011;59323;50.874;7.028;2023-05-10T07:05:12;18.67;;;7.75;;
71503;SDS011;59323;50.874;7.028;2023-05-10T07:07:37;19.17;;;8.07;;
71503;SDS011;59323;50.874;7.028;2023-05-10T07:10:03;16.17;;;8.45;;
71503;SDS011;59323;50.874;7.028;2023-05-10T07:12:38;20.57;;;8.13;;
71503;SDS011;59323;50.874;7.028;2023-05-10T07:15:06;19.17;;;8.30;;
71503;SDS011;59323;50.874;7.028;2023-05-10T07:17:38;18.27;;;8.23;;
71503;SDS011;59323;50.874;7.028;2023-05-10T07:20:06;20.27;;;7.83;;
71503;SDS011;59323;50.874;7.028;2023-05-10T07:22:32;18.50;;;8.05;;
71503;SDS011;59323;50.874;7.028;2023-05-10T07:24:57;20.37;;;8.37;;
71503;SDS011;59323;50.874;7.028;2023-05-10T07:27:23;18.90;;;7.72;;
71503;SDS011;59323;50.874;7.028;2023-05-10T07:29:48;18.43;;;7.47;;
71503;SDS011;59323;50.874;7.028;2023-05-10T07:32:20;17.60;;;7.20;;
71503;SDS011;59323;50.874;7.028;2023-05-10T07:34:48;22.50;;;8.60;;
71503;SDS011;59323;50.874;7.028;2023-05-10T07:37:13;17.77;;;6.57;;
71503;SDS011;59323;50.874;7.028;2023-05-10T07:39:38;16.23;;;7.43;;
71503;SDS011;59323;50.874;7.028;2023-05-10T07:42:04;18.77;;;7.90;;
71503;SDS011;59323;50.874;7.028;2023-05-10T07:44:29;21.20;;;7.70;;
71503;SDS011;59323;50.874;7.028;2023-05-10T07:46:54;21.08;;;7.95;;
71503;SDS011;59323;50.874;7.028;2023-05-10T07:49:20;20.87;;;8.07;;
71503;SDS011;59323;50.874;7.028;2023-05-10T07:51:46;18.95;;;6.75;;
71503;SDS011;59323;50.874;7.028;2023-05-10T07:54:11;20.10;;;7.67;;
71503;SDS011;59323;50.874;7.028;2023-05-10T07:56:37;18.85;;;6.57;;
71503;SDS011;59323;50.874;7.028;2023-05-10T07:59:03;17.33;;;7.30;;
71503;SDS011;59323;50.874;7.028;2023-05-10T08:01:30;13.05;;;5.57;;
71503;SDS011;59323;50.874;7.028;2023-05-10T08:04:00;19.00;;;6.80;;
71503;SDS011;59323;50.874;7.028;2023-05-10T08:06:26;15.35;;;7.00;;
71503;SDS011;59323;50.874;7.028;2023-05-10T08:08:53;15.03;;;6.83;;
71503;SDS011;59323;50.874;7.028;2023-05-10T08:11:22;17.23;;;6.63;;
71503;SDS011;59323;50.874;7.028;2023-05-10T08:13:48;17.52;;;6.95;;
71503;SDS011;59323;50.874;7.028;2023-05-10T08:16:15;19.60;;;7.35;;
71503;SDS011;59323;50.874;7.028;2023-05-10T08:18:40;17.38;;;7.00;;
71503;SDS011;59323;50.874;7.028;2023-05-10T08:21:06;16.43;;;7.33;;
71503;SDS011;59323;50.874;7.028;2023-05-10T08:23:32;13.27;;;6.50;;
71503;SDS011;59323;50.874;7.028;2023-05-10T08:25:57;19.10;;;7.47;;
71503;SDS011;59323;50.874;7.028;2023-05-10T08:28:22;15.20;;;6.33;;
71503;SDS011;59323;50.874;7.028;2023-05-10T08:30:49;16.93;;;6.20;;
71503;SDS011;59323;50.874;7.028;2023-05-10T08:33:15;15.85;;;6.20;;
71503;SDS011;59323;50.874;7.028;2023-05-10T08:35:40;16.17;;;6.00;;
71503;SDS011;59323;50.874;7.028;2023-05-10T08:38:06;14.98;;;5.60;;
71503;SDS011;59323;50.874;7.028;2023-05-10T08:40:31;12.67;;;4.40;;
71503;SDS011;59323;50.874;7.028;2023-05-10T08:43:07;9.70;;;3.80;;
71503;SDS011;59323;50.874;7.028;2023-05-10T08:45:38;13.75;;;3.90;;
71503;SDS011;59323;50.874;7.028;2023-05-10T08:48:07;9.43;;;2.92;;
71503;SDS011;59323;50.874;7.028;2023-05-10T08:50:38;7.20;;;2.80;;
71503;SDS011;59323;50.874;7.028;2023-05-10T08:53:14;4.55;;;1.52;;
71503;SDS011;59323;50.874;7.028;2023-05-10T08:55:41;5.33;;;1.60;;
71503;SDS011;59323;50.874;7.028;2023-05-10T08:58:07;4.43;;;1.30;;
71503;SDS011;59323;50.874;7.028;2023-05-10T09:00:34;4.32;;;1.20;;
71503;SDS011;59323;50.874;7.028;2023-05-10T09:06:06;4.20;;;1.27;;
71503;SDS011;59323;50.874;7.028;2023-05-10T09:08:33;4.80;;;1.70;;
71503;SDS011;59323;50.874;7.028;2023-05-10T09:11:03;4.93;;;1.50;;
71503;SDS011;59323;50.874;7.028;2023-05-10T09:13:30;5.35;;;1.65;;
71503;SDS011;59323;50.874;7.028;2023-05-10T09:15:55;7.75;;;2.58;;
71503;SDS011;59323;50.874;7.028;2023-05-10T09:18:33;3.83;;;1.40;;
71503;SDS011;59323;50.874;7.028;2023-05-10T09:27:15;7.27;;;3.00;;
71503;SDS011;59323;50.874;7.028;2023-05-10T09:29:43;7.63;;;3.40;;
71503;SDS011;59323;50.874;7.028;2023-05-10T09:32:10;11.13;;;3.33;;
71503;SDS011;59323;50.874;7.028;2023-05-10T09:34:35;9.43;;;3.20;;
71503;SDS011;59323;50.874;7.028;2023-05-10T09:37:04;7.87;;;3.20;;
71503;SDS011;59323;50.874;7.028;2023-05-10T09:39:37;7.80;;;3.50;;
71503;SDS011;59323;50.874;7.028;2023-05-10T09:42:03;8.35;;;3.65;;
71503;SDS011;59323;50.874;7.028;2023-05-10T09:44:33;7.55;;;3.60;;
71503;SDS011;59323;50.874;7.028;2023-05-10T09:47:00;7.15;;;3.20;;
71503;SDS011;59323;50.874;7.028;2023-05-10T09:49:28;8.40;;;3.00;;
71503;SDS011;59323;50.874;7.028;2023-05-10T09:52:04;5.95;;;2.25;;
71503;SDS011;59323;50.874;7.028;2023-05-10T09:54:31;7.32;;;2.20;;
71503;SDS011;59323;50.874;7.028;2023-05-10T09:56:57;6.47;;;2.17;;
71503;SDS011;59323;50.874;7.028;2023-05-10T09:59:22;7.45;;;2.00;;
71503;SDS011;59323;50.874;7.028;2023-05-10T10:01:50;6.70;;;2.53;;
71503;SDS011;59323;50.874;7.028;2023-05-10T10:04:16;8.32;;;2.70;;
71503;SDS011;59323;50.874;7.028;2023-05-10T10:06:42;11.57;;;3.47;;
71503;SDS011;59323;50.874;7.028;2023-05-10T10:09:08;8.00;;;3.10;;
71503;SDS011;59323;50.874;7.028;2023-05-10T10:11:35;11.73;;;4.75;;
71503;SDS011;59323;50.874;7.028;2023-05-10T10:20:28;12.88;;;5.30;;
71503;SDS011;59323;50.874;7.028;2023-05-10T10:22:54;17.87;;;6.30;;
71503;SDS011;59323;50.874;7.028;2023-05-10T10:25:19;17.67;;;6.67;;
71503;SDS011;59323;50.874;7.028;2023-05-10T10:35:33;12.88;;;4.95;;
71503;SDS011;59323;50.874;7.028;2023-05-10T10:37:59;13.77;;;5.07;;
71503;SDS011;59323;50.874;7.028;2023-05-10T10:40:29;13.90;;;5.32;;
71503;SDS011;59323;50.874;7.028;2023-05-10T10:42:56;14.25;;;5.20;;
71503;SDS011;59323;50.874;7.028;2023-05-10T10:45:22;14.30;;;5.47;;
71503;SDS011;59323;50.874;7.028;2023-05-10T10:47:53;14.52;;;5.63;;
71503;SDS011;59323;50.874;7.028;2023-05-10T10:50:45;13.68;;;5.47;;
71503;SDS011;59323;50.874;7.028;2023-05-10T10:53:13;14.32;;;5.53;;
71503;SDS011;59323;50.874;7.028;2023-05-10T10:58:40;12.77;;;5.10;;
71503;SDS011;59323;50.874;7.028;2023-05-10T11:01:27;13.27;;;4.37;;
71503;SDS011;59323;50.874;7.028;2023-05-10T11:06:36;9.82;;;4.15;;
71503;SDS011;59323;50.874;7.028;2023-05-10T11:09:12;9.90;;;3.20;;
71503;SDS011;59323;50.874;7.028;2023-05-10T11:12:07;9.95;;;3.30;;
71503;SDS011;59323;50.874;7.028;2023-05-10T11:14:41;8.80;;;3.27;;
71503;SDS011;59323;50.874;7.028;2023-05-10T11:20:10;10.55;;;3.38;;
71503;SDS011;59323;50.874;7.028;2023-05-10T11:22:57;9.98;;;3.50;;
71503;SDS011;59323;50.874;7.028;2023-05-10T11:25:26;10.05;;;3.67;;
71503;SDS011;59323;50.874;7.028;2023-05-10T11:27:51;9.63;;;3.60;;
71503;SDS011;59323;50.874;7.028;2023-05-10T11:30:17;8.82;;;3.08;;
71503;SDS011;59323;50.874;7.028;2023-05-10T11:32:46;8.03;;;2.67;;
71503;SDS011;59323;50.874;7.028;2023-05-10T11:35:12;6.35;;;2.08;;
71503;SDS011;59323;50.874;7.028;2023-05-10T11:37:38;5.05;;;2.03;;
71503;SDS011;59323;50.874;7.028;2023-05-10T11:40:07;5.13;;;2.10;;
71503;SDS011;59323;50.874;7.028;2023-05-10T11:42:35;5.68;;;2.25;;
71503;SDS011;59323;50.874;7.028;2023-05-10T11:45:04;5.80;;;2.40;;
71503;SDS011;59323;50.874;7.028;2023-05-10T11:47:30;7.70;;;2.42;;
71503;SDS011;59323;50.874;7.028;2023-05-10T11:49:56;5.73;;;1.90;;
71503;SDS011;59323;50.874;7.028;2023-05-10T11:52:22;5.53;;;1.90;;
71503;SDS011;59323;50.874;7.028;2023-05-10T11:54:52;7.40;;;1.90;;
71503;SDS011;59323;50.874;7.028;2023-05-10T11:57:18;6.43;;;2.25;;
71503;SDS011;59323;50.874;7.028;2023-05-10T11:59:45;6.47;;;1.93;;
71503;SDS011;59323;50.874;7.028;2023-05-10T12:02:12;5.95;;;2.13;;
71503;SDS011;59323;50.874;7.028;2023-05-10T12:04:38;6.32;;;2.00;;
71503;SDS011;59323;50.874;7.028;2023-05-10T12:07:04;4.85;;;1.50;;
71503;SDS011;59323;50.874;7.028;2023-05-10T12:09:30;4.40;;;1.80;;
71503;SDS011;59323;50.874;7.028;2023-05-10T12:11:56;4.60;;;1.43;;
71503;SDS011;59323;50.874;7.028;2023-05-10T12:14:24;5.88;;;1.70;;
71503;SDS011;59323;50.874;7.028;2023-05-10T12:16:49;5.40;;;1.60;;
71503;SDS011;59323;50.874;7.028;2023-05-10T12:19:18;3.80;;;1.77;;
71503;SDS011;59323;50.874;7.028;2023-05-10T12:21:45;5.75;;;1.70;;
71503;SDS011;59323;50.874;7.028;2023-05-10T12:24:10;4.00;;;2.00;;
71503;SDS011;59323;50.874;7.028;2023-05-10T12:26:35;4.33;;;1.60;;
71503;SDS011;59323;50.874;7.028;2023-05-10T12:29:17;4.18;;;1.77;;
71503;SDS011;59323;50.874;7.028;2023-05-10T12:32:05;4.77;;;1.83;;
71503;SDS011;59323;50.874;7.028;2023-05-10T12:36:59;3.72;;;1.45;;
71503;SDS011;59323;50.874;7.028;2023-05-10T12:39:25;3.00;;;1.52;;
71503;SDS011;59323;50.874;7.028;2023-05-10T12:41:51;4.63;;;1.37;;
71503;SDS011;59323;50.874;7.028;2023-05-10T12:44:17;2.40;;;1.25;;
71503;SDS011;59323;50.874;7.028;2023-05-10T12:46:42;3.00;;;1.40;;
71503;SDS011;59323;50.874;7.028;2023-05-10T12:49:08;4.32;;;1.52;;
71503;SDS011;59323;50.874;7.028;2023-05-10T12:51:33;4.10;;;1.50;;
71503;SDS011;59323;50.874;7.028;2023-05-10T12:53:58;2.90;;;1.40;;
71503;SDS011;59323;50.874;7.028;2023-05-10T12:56:24;2.70;;;1.33;;
71503;SDS011;59323;50.874;7.028;2023-05-10T12:58:49;3.00;;;1.10;;
71503;SDS011;59323;50.874;7.028;2023-05-10T13:01:15;3.17;;;1.40;;
71503;SDS011;59323;50.874;7.028;2023-05-10T13:03:41;2.55;;;1.27;;
71503;SDS011;59323;50.874;7.028;2023-05-10T13:06:08;4.33;;;1.10;;
71503;SDS011;59323;50.874;7.028;2023-05-10T13:08:33;2.03;;;0.98;;
71503;SDS011;59323;50.874;7.028;2023-05-10T13:10:59;2.33;;;1.00;;
71503;SDS011;59323;50.874;7.028;2023-05-10T13:13:28;2.00;;;1.10;;
71503;SDS011;59323;50.874;7.028;2023-05-10T13:15:56;2.20;;;1.02;;
71503;SDS011;59323;50.874;7.028;2023-05-10T13:18:21;2.70;;;1.23;;
71503;SDS011;59323;50.874;7.028;2023-05-10T13:20:47;2.90;;;1.20;;
71503;SDS011;59323;50.874;7.028;2023-05-10T13:23:12;2.00;;;1.13;;
71503;SDS011;59323;50.874;7.028;2023-05-10T13:25:37;5.30;;;1.10;;
71503;SDS011;59323;50.874;7.028;2023-05-10T13:28:03;3.87;;;0.93;;
71503;SDS011;59323;50.874;7.028;2023-05-10T13:30:28;2.23;;;1.03;;
71503;SDS011;59323;50.874;7.028;2023-05-10T13:32:54;1.93;;;1.20;;
71503;SDS011;59323;50.874;7.028;2023-05-10T13:35:19;2.08;;;0.80;;
71503;SDS011;59323;50.874;7.028;2023-05-10T13:37:48;2.00;;;1.00;;
71503;SDS011;59323;50.874;7.028;2023-05-10T13:40:13;2.28;;;0.80;;
71503;SDS011;59323;50.874;7.028;2023-05-10T13:42:40;2.37;;;0.90;;
71503;SDS011;59323;50.874;7.028;2023-05-10T13:45:06;3.03;;;0.88;;
71503;SDS011;59323;50.874;7.028;2023-05-10T13:47:31;3.13;;;1.40;;
71503;SDS011;59323;50.874;7.028;2023-05-10T13:49:57;2.15;;;0.90;;
71503;SDS011;59323;50.874;7.028;2023-05-10T13:52:22;3.33;;;1.10;;
71503;SDS011;59323;50.874;7.028;2023-05-10T13:54:48;2.30;;;1.10;;
71503;SDS011;59323;50.874;7.028;2023-05-10T13:57:13;3.17;;;1.30;;
71503;SDS011;59323;50.874;7.028;2023-05-10T13:59:38;2.85;;;1.10;;
71503;SDS011;59323;50.874;7.028;2023-05-10T14:02:04;2.23;;;1.00;;
71503;SDS011;59323;50.874;7.028;2023-05-10T14:04:29;1.70;;;0.80;;
71503;SDS011;59323;50.874;7.028;2023-05-10T14:06:56;3.55;;;0.80;;
71503;SDS011;59323;50.874;7.028;2023-05-10T14:09:21;1.83;;;1.00;;
71503;SDS011;59323;50.874;7.028;2023-05-10T14:11:47;4.75;;;0.70;;
71503;SDS011;59323;50.874;7.028;2023-05-10T14:14:12;2.47;;;1.00;;
71503;SDS011;59323;50.874;7.028;2023-05-10T14:16:45;1.75;;;0.90;;
71503;SDS011;59323;50.874;7.028;2023-05-10T14:19:11;2.13;;;0.70;;
71503;SDS011;59323;50.874;7.028;2023-05-10T14:21:37;5.75;;;0.90;;
71503;SDS011;59323;50.874;7.028;2023-05-10T14:24:03;2.80;;;0.90;;
71503;SDS011;59323;50.874;7.028;2023-05-10T14:26:28;3.50;;;1.00;;
71503;SDS011;59323;50.874;7.028;2023-05-10T14:28:54;2.28;;;1.02;;
71503;SDS011;59323;50.874;7.028;2023-05-10T14:31:19;2.43;;;0.70;;
71503;SDS011;59323;50.874;7.028;2023-05-10T14:33:45;1.52;;;0.70;;
71503;SDS011;59323;50.874;7.028;2023-05-10T14:36:14;2.77;;;1.10;;
71503;SDS011;59323;50.874;7.028;2023-05-10T14:38:39;1.53;;;1.07;;
71503;SDS011;59323;50.874;7.028;2023-05-10T14:41:05;1.97;;;0.80;;
71503;SDS011;59323;50.874;7.028;2023-05-10T14:43:31;3.03;;;0.93;;
71503;SDS011;59323;50.874;7.028;2023-05-10T14:45:56;1.67;;;0.80;;
71503;SDS011;59323;50.874;7.028;2023-05-10T14:48:22;2.30;;;0.60;;
71503;SDS011;59323;50.874;7.028;2023-05-10T14:50:47;3.83;;;1.00;;
71503;SDS011;59323;50.874;7.028;2023-05-10T14:53:14;1.90;;;0.90;;
71503;SDS011;59323;50.874;7.028;2023-05-10T14:55:40;1.55;;;0.70;;
71503;SDS011;59323;50.874;7.028;2023-05-10T14:58:05;2.87;;;0.77;;
71503;SDS011;59323;50.874;7.028;2023-05-10T15:00:30;2.00;;;0.80;;
71503;SDS011;59323;50.874;7.028;2023-05-10T15:02:56;1.57;;;0.70;;
71503;SDS011;59323;50.874;7.028;2023-05-10T15:05:22;2.00;;;0.83;;
71503;SDS011;59323;50.874;7.028;2023-05-10T15:07:47;2.40;;;0.80;;
71503;SDS011;59323;50.874;7.028;2023-05-10T15:10:13;3.17;;;0.97;;
71503;SDS011;59323;50.874;7.028;2023-05-10T15:12:40;2.03;;;0.80;;
71503;SDS011;59323;50.874;7.028;2023-05-10T15:15:05;4.07;;;1.10;;
71503;SDS011;59323;50.874;7.028;2023-05-10T15:17:31;3.38;;;1.08;;
71503;SDS011;59323;50.874;7.028;2023-05-10T15:19:57;3.13;;;1.20;;
71503;SDS011;59323;50.874;7.028;2023-05-10T15:22:22;4.27;;;1.27;;
71503;SDS011;59323;50.874;7.028;2023-05-10T15:24:48;2.00;;;0.90;;
71503;SDS011;59323;50.874;7.028;2023-05-10T15:27:14;2.23;;;1.13;;
71503;SDS011;59323;50.874;7.028;2023-05-10T15:29:39;2.33;;;0.97;;
71503;SDS011;59323;50.874;7.028;2023-05-10T15:32:05;1.67;;;0.80;;
71503;SDS011;59323;50.874;7.028;2023-05-10T15:34:31;3.38;;;1.20;;
71503;SDS011;59323;50.874;7.028;2023-05-10T15:36:56;6.07;;;1.20;;